Terminal Aerodrome Forecast
Issued by NWS

Home | Current Version | Previous Version | Text Only | Print | Product List | Glossary On
Versions: 1 2 3 4 5 6 7 8 9 10 11 12 13
386
FTUS43 KMQT 301123 AAA
TAFSAW
TAF AMD
KSAW 301123Z 3011/3106 VRB03KT P6SM FEW200
     FM301700 09006KT P6SM FEW140
     FM310100 VRB03KT P6SM FEW100=

USA.gov is the U.S. government's official web portal to all federal, state and local government web resources and services.